Time,TemperatureF,DewpointF,PressureIn,WindDirection,WindDirectionDegrees,WindSpeedMPH,WindSpeedGustMPH,Humidity,HourlyPrecipIn,Conditions,Clouds,dailyrainin,SoftwareType,DateUTC
2013-07-08 00:02:00,57.0,54.0,29.93,North,-999,-999.0,-999.0,90,-99.99,,,-99.99,,2013-07-08 07:02:00,
2013-07-08 00:11:00,57.0,54.0,29.93,North,-999,-999.0,-999.0,90,-99.99,,,-99.99,,2013-07-08 07:11:00,
2013-07-08 00:34:00,57.0,54.0,29.94,North,-999,-999.0,-999.0,91,-99.99,,,-99.99,,2013-07-08 07:34:00,
2013-07-08 00:44:00,57.0,54.0,29.94,North,-999,-999.0,-999.0,91,-99.99,,,-99.99,,2013-07-08 07:44:00,
2013-07-08 00:52:00,56.0,54.0,29.94,North,-999,-999.0,-999.0,91,-99.99,,,-99.99,,2013-07-08 07:52:00,
2013-07-08 01:02:00,56.0,54.0,29.94,North,-999,-999.0,-999.0,91,-99.99,,,-99.99,,2013-07-08 08:02:00,
2013-07-08 01:11:00,56.0,54.0,29.94,North,-999,-999.0,-999.0,91,-99.99,,,-99.99,,2013-07-08 08:11:00,
2013-07-08 01:33:00,56.0,53.0,29.95,North,-999,-999.0,-999.0,92,-99.99,,,-99.99,,2013-07-08 08:33:00,
2013-07-08 01:42:00,56.0,53.0,29.95,North,-999,-999.0,-999.0,92,-99.99,,,-99.99,,2013-07-08 08:42:00,
2013-07-08 01:52:00,55.0,53.0,29.95,North,-999,-999.0,-999.0,93,-99.99,,,-99.99,,2013-07-08 08:52:00,
2013-07-08 02:01:00,55.0,53.0,29.95,North,-999,-999.0,-999.0,93,-99.99,,,-99.99,,2013-07-08 09:01:00,
2013-07-08 02:11:00,55.0,53.0,29.95,North,-999,-999.0,-999.0,93,-99.99,,,-99.99,,2013-07-08 09:11:00,
2013-07-08 02:34:00,55.0,53.0,29.95,North,-999,-999.0,-999.0,93,-99.99,,,-99.99,,2013-07-08 09:34:00,
2013-07-08 02:43:00,55.0,53.0,29.95,North,-999,-999.0,-999.0,93,-99.99,,,-99.99,,2013-07-08 09:43:00,
2013-07-08 02:52:00,55.0,53.0,29.96,North,-999,-999.0,-999.0,94,-99.99,,,-99.99,,2013-07-08 09:52:00,
2013-07-08 03:01:00,55.0,53.0,29.96,North,-999,-999.0,-999.0,94,-99.99,,,-99.99,,2013-07-08 10:01:00,
2013-07-08 03:11:00,55.0,53.0,29.96,North,-999,-999.0,-999.0,94,-99.99,,,-99.99,,2013-07-08 10:11:00,
2013-07-08 03:34:00,54.0,53.0,29.96,North,-999,-999.0,-999.0,95,-99.99,,,-99.99,,2013-07-08 10:34:00,
2013-07-08 03:43:00,54.0,53.0,29.96,North,-999,-999.0,-999.0,95,-99.99,,,-99.99,,2013-07-08 10:43:00,
2013-07-08 03:53:00,54.0,53.0,29.97,North,-999,-999.0,-999.0,95,-99.99,,,-99.99,,2013-07-08 10:53:00,
2013-07-08 04:02:00,54.0,53.0,29.97,North,-999,-999.0,-999.0,95,-99.99,,,-99.99,,2013-07-08 11:02:00,
2013-07-08 04:11:00,54.0,53.0,29.97,North,-999,-999.0,-999.0,95,-99.99,,,-99.99,,2013-07-08 11:11:00,
2013-07-08 04:33:00,54.0,53.0,29.98,North,-999,-999.0,-999.0,96,-99.99,,,-99.99,,2013-07-08 11:33:00,
2013-07-08 04:43:00,54.0,53.0,29.98,North,-999,-999.0,-999.0,96,-99.99,,,-99.99,,2013-07-08 11:43:00,
2013-07-08 04:52:00,54.0,53.0,29.99,North,-999,-999.0,-999.0,96,-99.99,,,-99.99,,2013-07-08 11:52:00,
2013-07-08 05:01:00,54.0,53.0,29.99,North,-999,-999.0,-999.0,96,-99.99,,,-99.99,,2013-07-08 12:01:00,
2013-07-08 05:11:00,54.0,53.0,29.99,North,-999,-999.0,-999.0,96,-99.99,,,-99.99,,2013-07-08 12:11:00,
2013-07-08 05:33:00,54.0,53.0,30.00,North,-999,-999.0,-999.0,97,-99.99,,,-99.99,,2013-07-08 12:33:00,
2013-07-08 05:43:00,54.0,53.0,30.00,North,-999,-999.0,-999.0,97,-99.99,,,-99.99,,2013-07-08 12:43:00,
2013-07-08 05:53:00,54.0,53.0,30.00,North,-999,-999.0,-999.0,97,-99.99,,,-99.99,,2013-07-08 12:53:00,
2013-07-08 06:01:00,54.0,53.0,30.00,North,-999,-999.0,-999.0,97,-99.99,,,-99.99,,2013-07-08 13:01:00,
2013-07-08 06:33:00,54.0,53.0,30.01,North,-999,-999.0,-999.0,97,-99.99,,,-99.99,,2013-07-08 13:33:00,
2013-07-08 06:42:00,54.0,53.0,30.01,North,-999,-999.0,-999.0,97,-99.99,,,-99.99,,2013-07-08 13:42:00,
2013-07-08 06:53:00,58.0,57.0,30.02,North,-999,-999.0,-999.0,98,-99.99,,,-99.99,,2013-07-08 13:53:00,
2013-07-08 07:02:00,58.0,57.0,30.02,North,-999,-999.0,-999.0,98,-99.99,,,-99.99,,2013-07-08 14:02:00,
2013-07-08 07:12:00,58.0,57.0,30.02,North,-999,-999.0,-999.0,98,-99.99,,,-99.99,,2013-07-08 14:12:00,
2013-07-08 07:33:00,58.0,57.0,30.03,North,-999,-999.0,-999.0,97,-99.99,,,-99.99,,2013-07-08 14:33:00,
2013-07-08 08:01:00,58.0,57.0,30.04,North,-999,-999.0,-999.0,96,-99.99,,,-99.99,,2013-07-08 15:01:00,
2013-07-08 08:11:00,58.0,57.0,30.04,North,-999,-999.0,-999.0,96,-99.99,,,-99.99,,2013-07-08 15:11:00,
2013-07-08 08:33:00,59.0,58.0,30.05,North,-999,-999.0,-999.0,96,-99.99,,,-99.99,,2013-07-08 15:33:00,
2013-07-08 08:43:00,59.0,58.0,30.05,North,-999,-999.0,-999.0,96,-99.99,,,-99.99,,2013-07-08 15:43:00,
2013-07-08 08:53:00,61.0,59.0,30.06,North,-999,-999.0,-999.0,94,-99.99,,,-99.99,,2013-07-08 15:53:00,
2013-07-08 09:01:00,61.0,59.0,30.06,North,-999,-999.0,-999.0,94,-99.99,,,-99.99,,2013-07-08 16:01:00,
2013-07-08 09:11:00,61.0,59.0,30.06,North,-999,-999.0,-999.0,94,-99.99,,,-99.99,,2013-07-08 16:11:00,
2013-07-08 09:33:00,61.0,58.0,30.06,North,-999,-999.0,-999.0,91,-99.99,,,-99.99,,2013-07-08 16:33:00,
2013-07-08 09:43:00,61.0,58.0,30.06,North,-999,-999.0,-999.0,91,-99.99,,,-99.99,,2013-07-08 16:43:00,
2013-07-08 10:04:00,61.0,57.0,30.07,North,-999,-999.0,-999.0,88,-99.99,,,-99.99,,2013-07-08 17:04:00,
2013-07-08 10:13:00,61.0,57.0,30.07,North,-999,-999.0,-999.0,88,-99.99,,,-99.99,,2013-07-08 17:13:00,
2013-07-08 10:36:00,61.0,56.0,30.08,North,-999,-999.0,-999.0,86,-99.99,,,-99.99,,2013-07-08 17:36:00,
2013-07-08 10:45:00,61.0,56.0,30.08,North,-999,-999.0,-999.0,86,-99.99,,,-99.99,,2013-07-08 17:45:00,
2013-07-08 10:54:00,61.0,56.0,30.09,North,-999,-999.0,-999.0,85,-99.99,,,-99.99,,2013-07-08 17:54:00,
2013-07-08 11:17:00,61.0,56.0,30.09,North,-999,-999.0,-999.0,85,-99.99,,,-99.99,,2013-07-08 18:17:00,
2013-07-08 11:45:00,62.0,57.0,30.09,North,-999,-999.0,-999.0,83,-99.99,,,-99.99,,2013-07-08 18:45:00,
2013-07-08 11:55:00,64.0,58.0,30.09,North,-999,-999.0,-999.0,81,-99.99,,,-99.99,,2013-07-08 18:55:00,
2013-07-08 12:15:00,64.0,58.0,30.09,North,-999,-999.0,-999.0,81,-99.99,,,-99.99,,2013-07-08 19:15:00,
2013-07-08 12:36:00,63.0,57.0,30.09,North,-999,-999.0,-999.0,80,-99.99,,,-99.99,,2013-07-08 19:36:00,
2013-07-08 12:54:00,63.0,58.0,30.10,North,-999,-999.0,-999.0,83,-99.99,,,-99.99,,2013-07-08 19:54:00,
2013-07-08 13:15:00,63.0,58.0,30.10,North,-999,-999.0,-999.0,83,-99.99,,,-99.99,,2013-07-08 20:15:00,
2013-07-08 13:46:00,64.0,58.0,30.10,North,-999,-999.0,-999.0,81,-99.99,,,-99.99,,2013-07-08 20:46:00,
2013-07-08 13:55:00,66.0,60.0,30.09,North,-999,-999.0,-999.0,79,-99.99,,,-99.99,,2013-07-08 20:55:00,
2013-07-08 14:07:00,66.0,60.0,30.09,North,-999,-999.0,-999.0,79,-99.99,,,-99.99,,2013-07-08 21:07:00,
2013-07-08 14:15:00,66.0,60.0,30.09,North,-999,-999.0,-999.0,79,-99.99,,,-99.99,,2013-07-08 21:15:00,
2013-07-08 14:38:00,66.0,59.0,30.09,North,-999,-999.0,-999.0,77,-99.99,,,-99.99,,2013-07-08 21:38:00,
2013-07-08 14:56:00,70.0,61.0,30.08,North,-999,-999.0,-999.0,73,-99.99,,,-99.99,,2013-07-08 21:56:00,
2013-07-08 15:08:00,70.0,61.0,30.08,North,-999,-999.0,-999.0,73,-99.99,,,-99.99,,2013-07-08 22:08:00,
2013-07-08 15:16:00,70.0,61.0,30.08,North,-999,-999.0,-999.0,73,-99.99,,,-99.99,,2013-07-08 22:16:00,
2013-07-08 15:38:00,72.0,63.0,30.08,North,-999,-999.0,-999.0,71,-99.99,,,-99.99,,2013-07-08 22:38:00,
2013-07-08 15:48:00,72.0,63.0,30.08,North,-999,-999.0,-999.0,71,-99.99,,,-99.99,,2013-07-08 22:48:00,
2013-07-08 16:07:00,74.0,64.0,30.07,North,-999,-999.0,-999.0,69,-99.99,,,-99.99,,2013-07-08 23:07:00,
2013-07-08 16:15:00,74.0,64.0,30.07,North,-999,-999.0,-999.0,69,-99.99,,,-99.99,,2013-07-08 23:15:00,
2013-07-08 16:38:00,74.0,62.0,30.07,North,-999,-999.0,-999.0,66,-99.99,,,-99.99,,2013-07-08 23:38:00,
2013-07-08 16:48:00,74.0,62.0,30.07,North,-999,-999.0,-999.0,66,-99.99,,,-99.99,,2013-07-08 23:48:00,
2013-07-08 17:24:00,72.0,60.0,30.07,North,-999,-999.0,-999.0,66,-99.99,,,-99.99,,2013-07-09 00:24:00,
2013-07-08 18:05:00,72.0,59.0,30.06,North,-999,-999.0,-999.0,63,-99.99,,,-99.99,,2013-07-09 01:05:00,
2013-07-08 18:15:00,72.0,59.0,30.06,North,-999,-999.0,-999.0,63,-99.99,,,-99.99,,2013-07-09 01:15:00,
2013-07-08 18:36:00,71.0,58.0,30.06,North,-999,-999.0,-999.0,62,-99.99,,,-99.99,,2013-07-09 01:36:00,
2013-07-08 18:48:00,71.0,58.0,30.06,North,-999,-999.0,-999.0,62,-99.99,,,-99.99,,2013-07-09 01:48:00,
2013-07-08 19:39:00,69.0,57.0,30.06,North,-999,-999.0,-999.0,67,-99.99,,,-99.99,,2013-07-09 02:39:00,
2013-07-08 20:37:00,65.0,56.0,30.06,North,-999,-999.0,-999.0,72,-99.99,,,-99.99,,2013-07-09 03:37:00,
2013-07-08 21:02:00,64.0,56.0,30.06,North,-999,-999.0,-999.0,74,-99.99,,,-99.99,,2013-07-09 04:02:00,
2013-07-08 21:11:00,64.0,56.0,30.06,North,-999,-999.0,-999.0,74,-99.99,,,-99.99,,2013-07-09 04:11:00,
2013-07-08 21:33:00,61.0,53.0,30.07,North,-999,-999.0,-999.0,75,-99.99,,,-99.99,,2013-07-09 04:33:00,
2013-07-08 21:42:00,61.0,53.0,30.07,North,-999,-999.0,-999.0,75,-99.99,,,-99.99,,2013-07-09 04:42:00,
2013-07-08 21:53:00,58.0,52.0,30.07,North,-999,-999.0,-999.0,78,-99.99,,,-99.99,,2013-07-09 04:53:00,
2013-07-08 22:02:00,58.0,52.0,30.07,North,-999,-999.0,-999.0,78,-99.99,,,-99.99,,2013-07-09 05:02:00,
2013-07-08 22:11:00,58.0,52.0,30.07,North,-999,-999.0,-999.0,78,-99.99,,,-99.99,,2013-07-09 05:11:00,
2013-07-08 22:33:00,57.0,52.0,30.08,North,-999,-999.0,-999.0,83,-99.99,,,-99.99,,2013-07-09 05:33:00,
2013-07-08 22:42:00,57.0,52.0,30.08,North,-999,-999.0,-999.0,83,-99.99,,,-99.99,,2013-07-09 05:42:00,
2013-07-08 22:52:00,56.0,53.0,30.08,North,-999,-999.0,-999.0,87,-99.99,,,-99.99,,2013-07-09 05:52:00,
2013-07-08 23:01:00,56.0,53.0,30.08,North,-999,-999.0,-999.0,87,-99.99,,,-99.99,,2013-07-09 06:01:00,
2013-07-08 23:11:00,56.0,53.0,30.08,North,-999,-999.0,-999.0,87,-99.99,,,-99.99,,2013-07-09 06:11:00,
2013-07-08 23:22:00,56.0,53.0,30.08,North,-999,-999.0,-999.0,87,-99.99,,,-99.99,,2013-07-09 06:22:00,
2013-07-08 23:33:00,56.0,53.0,30.08,North,-999,-999.0,-999.0,90,-99.99,,,-99.99,,2013-07-09 06:33:00,
2013-07-08 23:43:00,56.0,53.0,30.08,North,-999,-999.0,-999.0,90,-99.99,,,-99.99,,2013-07-09 06:43:00,
2013-07-08 23:53:00,56.0,53.0,30.09,North,-999,-999.0,-999.0,91,-99.99,,,-99.99,,2013-07-09 06:53:00,